createdAt,value
2023-05-14T00:01:25.588Z,87.41
2023-05-14T00:03:52.964Z,87.23
2023-05-14T00:06:20.573Z,87.54
2023-05-14T00:08:49.169Z,87.12
2023-05-14T00:11:16.445Z,87.40
2023-05-14T00:13:43.688Z,87.22
2023-05-14T00:16:11.527Z,87.67
2023-05-14T00:18:38.817Z,87.46
2023-05-14T00:21:06.064Z,87.03
2023-05-14T00:23:33.268Z,86.46
2023-05-14T00:26:01.846Z,87.49
2023-05-14T00:28:29.055Z,87.30
2023-05-14T00:30:57.373Z,87.88
2023-05-14T00:33:24.570Z,87.32
2023-05-14T00:35:51.918Z,87.40
2023-05-14T00:38:19.666Z,86.82
2023-05-14T00:40:51.437Z,87.50
2023-05-14T00:43:21.145Z,87.22
2023-05-14T00:45:50.025Z,87.26
2023-05-14T00:48:17.647Z,87.46
2023-05-14T00:50:44.845Z,86.95
2023-05-14T00:53:12.540Z,88.05
2023-05-14T00:55:41.669Z,88.23
2023-05-14T00:58:11.101Z,88.01
2023-05-14T01:00:40.665Z,87.81
2023-05-14T01:03:09.171Z,87.73
2023-05-14T01:05:43.994Z,88.22
2023-05-14T01:08:21.691Z,88.21
2023-05-14T01:10:53.041Z,88.55
2023-05-14T01:13:27.250Z,88.70
2023-05-14T01:15:58.693Z,88.72
2023-05-14T01:18:28.362Z,88.26
2023-05-14T01:20:55.670Z,88.51
2023-05-14T01:23:24.593Z,88.98
2023-05-14T01:25:51.883Z,88.65
2023-05-14T01:28:22.487Z,88.00
2023-05-14T01:30:54.109Z,88.56
2023-05-14T01:33:24.895Z,88.38
2023-05-14T01:35:53.795Z,88.30
2023-05-14T01:38:22.227Z,88.14
2023-05-14T01:40:51.202Z,87.98
2023-05-14T01:43:19.290Z,88.01
2023-05-14T01:45:46.898Z,88.11
2023-05-14T01:48:14.174Z,88.12
2023-05-14T01:50:41.748Z,87.77
2023-05-14T01:53:09.075Z,87.41
2023-05-14T01:55:36.349Z,87.53
2023-05-14T01:58:05.007Z,86.84
2023-05-14T02:00:32.303Z,87.83
2023-05-14T02:02:59.593Z,87.15
2023-05-14T02:05:27.010Z,87.06
2023-05-14T02:07:54.266Z,86.87
2023-05-14T02:10:21.600Z,86.69
2023-05-14T02:12:48.981Z,86.88
2023-05-14T02:15:18.085Z,87.35
2023-05-14T02:17:45.770Z,87.07
2023-05-14T02:20:13.770Z,86.72
2023-05-14T02:22:45.706Z,87.00
2023-05-14T02:25:13.150Z,86.76
2023-05-14T02:27:40.578Z,87.59
2023-05-14T02:30:09.034Z,86.79
2023-05-14T02:32:38.376Z,86.87
2023-05-14T02:35:06.795Z,87.04
2023-05-14T02:37:34.924Z,86.29
2023-05-14T02:40:02.100Z,86.74
2023-05-14T02:42:29.250Z,86.84
2023-05-14T02:44:56.468Z,86.09
2023-05-14T02:47:23.678Z,87.11
2023-05-14T02:49:52.636Z,86.83
2023-05-14T02:52:19.825Z,85.76
2023-05-14T02:54:47.067Z,85.43
2023-05-14T02:57:14.314Z,85.84
2023-05-14T02:59:41.665Z,86.50
2023-05-14T03:02:09.196Z,86.62
2023-05-14T03:04:36.888Z,86.42
2023-05-14T03:07:05.898Z,85.61
2023-05-14T03:09:33.470Z,85.92
2023-05-14T03:12:01.409Z,86.27
2023-05-14T03:14:28.684Z,85.57
2023-05-14T03:16:56.012Z,86.05
2023-05-14T03:19:23.180Z,85.77
2023-05-14T03:21:50.353Z,86.42
2023-05-14T03:24:18.940Z,86.74
2023-05-14T03:26:46.195Z,87.07
2023-05-14T03:29:13.549Z,86.91
2023-05-14T03:31:40.832Z,87.67
2023-05-14T03:34:08.033Z,86.84
2023-05-14T03:36:36.511Z,87.13
2023-05-14T03:39:03.867Z,87.02
2023-05-14T03:41:32.550Z,87.17
2023-05-14T03:43:59.833Z,87.86
2023-05-14T03:46:27.135Z,88.03
2023-05-14T03:48:54.298Z,88.00
2023-05-14T03:51:21.624Z,88.31
2023-05-14T03:53:48.813Z,88.75
2023-05-14T03:56:16.129Z,88.54
2023-05-14T03:58:44.768Z,88.05
2023-05-14T04:01:11.919Z,88.62
2023-05-14T04:03:39.259Z,88.56
2023-05-14T04:06:06.883Z,89.52
2023-05-14T04:08:34.072Z,89.02
2023-05-14T04:11:01.324Z,89.18
2023-05-14T04:13:28.566Z,89.81
2023-05-14T04:15:57.179Z,89.13
2023-05-14T04:18:25.744Z,89.16
2023-05-14T04:20:52.977Z,89.48
2023-05-14T04:23:20.599Z,89.36
2023-05-14T04:25:47.786Z,89.40
2023-05-14T04:28:15.250Z,89.69
2023-05-14T04:30:42.459Z,89.27
2023-05-14T04:33:11.169Z,88.99
2023-05-14T04:35:38.775Z,89.45
2023-05-14T04:38:06.249Z,88.82
2023-05-14T04:40:33.398Z,89.91
2023-05-14T04:43:00.627Z,90.07
2023-05-14T04:45:27.850Z,89.93
2023-05-14T04:47:55.122Z,89.84
2023-05-14T04:50:24.064Z,89.90
2023-05-14T04:52:51.555Z,89.72
2023-05-14T04:55:18.763Z,90.43
2023-05-14T04:57:45.972Z,90.33
2023-05-14T05:00:13.960Z,89.98
2023-05-14T05:02:41.679Z,89.46
2023-05-14T05:05:09.977Z,89.67
2023-05-14T05:07:38.642Z,89.36
2023-05-14T05:10:07.192Z,89.65
2023-05-14T05:12:35.493Z,89.93
2023-05-14T05:15:02.713Z,89.78
2023-05-14T05:17:30.279Z,89.49
2023-05-14T05:19:57.474Z,89.00
2023-05-14T05:22:24.781Z,89.00
2023-05-14T05:24:53.582Z,88.74
2023-05-14T05:27:22.263Z,89.28
2023-05-14T05:29:49.420Z,89.08
2023-05-14T05:32:16.577Z,89.55
2023-05-14T05:34:43.831Z,89.04
2023-05-14T05:37:12.922Z,89.42
2023-05-14T05:39:40.213Z,89.27
2023-05-14T05:42:09.167Z,90.10
2023-05-14T05:44:36.461Z,89.76
2023-05-14T05:47:03.903Z,89.27
2023-05-14T05:49:31.099Z,88.94
2023-05-14T05:51:58.517Z,89.24
2023-05-14T05:54:25.871Z,89.20
2023-05-14T05:56:53.152Z,89.56
2023-05-14T05:59:22.059Z,89.35
2023-05-14T06:01:49.347Z,88.80
2023-05-14T06:04:16.682Z,89.29
2023-05-14T06:06:43.850Z,89.93
2023-05-14T06:09:11.151Z,89.89
2023-05-14T06:11:38.390Z,89.44
2023-05-14T06:14:05.704Z,89.71
2023-05-14T06:16:34.286Z,89.36
2023-05-14T06:19:02.143Z,89.59
2023-05-14T06:21:29.476Z,89.45
2023-05-14T06:23:56.692Z,89.48
2023-05-14T06:26:23.872Z,89.27
2023-05-14T06:28:51.137Z,89.53
2023-05-14T06:31:18.741Z,90.14
2023-05-14T06:33:47.465Z,89.43
2023-05-14T06:36:14.643Z,89.68
2023-05-14T06:38:41.903Z,89.79
2023-05-14T06:41:09.342Z,89.15
2023-05-14T06:43:36.740Z,89.23
2023-05-14T06:46:03.908Z,89.81
2023-05-14T06:48:31.663Z,89.13
2023-05-14T06:51:00.435Z,89.13
2023-05-14T06:53:27.721Z,89.41
2023-05-14T06:55:56.465Z,89.48
2023-05-14T06:58:23.803Z,89.57
2023-05-14T07:00:51.105Z,89.81
2023-05-14T07:03:18.438Z,88.85
2023-05-14T07:05:46.982Z,89.55
2023-05-14T07:08:15.697Z,89.07
2023-05-14T07:10:43.016Z,89.19
2023-05-14T07:13:10.527Z,89.09
2023-05-14T07:15:37.901Z,89.39
2023-05-14T07:18:05.287Z,89.91
2023-05-14T07:20:32.736Z,89.46
2023-05-14T07:23:00.107Z,88.62
2023-05-14T07:25:28.851Z,88.77
2023-05-14T07:27:56.226Z,88.87
2023-05-14T07:30:23.734Z,89.39
2023-05-14T07:32:51.423Z,89.60
2023-05-14T07:35:18.717Z,89.45
2023-05-14T07:37:46.257Z,89.58
2023-05-14T07:40:13.839Z,88.65
2023-05-14T07:42:42.471Z,88.60
2023-05-14T07:45:10.799Z,88.41
2023-05-14T07:47:39.053Z,89.50
2023-05-14T07:50:07.709Z,90.07
2023-05-14T07:52:34.895Z,88.99
2023-05-14T07:55:03.376Z,88.81
2023-05-14T07:57:31.036Z,89.14
2023-05-14T07:59:59.750Z,88.98
2023-05-14T08:02:27.371Z,88.84
2023-05-14T08:04:54.632Z,88.67
2023-05-14T08:07:22.143Z,88.74
2023-05-14T08:09:49.481Z,88.82
2023-05-14T08:12:16.747Z,88.81
2023-05-14T08:14:44.007Z,89.31
2023-05-14T08:17:12.766Z,89.44
2023-05-14T08:19:40.309Z,89.24
2023-05-14T08:22:07.583Z,88.92
2023-05-14T08:24:34.904Z,89.28
2023-05-14T08:27:02.464Z,89.50
2023-05-14T08:29:29.837Z,88.97
2023-05-14T08:31:58.053Z,89.52
2023-05-14T08:34:28.012Z,89.58
2023-05-14T08:36:55.455Z,89.70
2023-05-14T08:39:22.945Z,89.60
2023-05-14T08:41:50.403Z,89.80
2023-05-14T08:44:20.472Z,88.91
2023-05-14T08:46:49.819Z,89.45
2023-05-14T08:49:29.199Z,89.96
2023-05-14T08:51:58.188Z,89.37
2023-05-14T08:54:27.408Z,89.38
2023-05-14T08:56:54.825Z,89.49
2023-05-14T08:59:22.317Z,89.75
2023-05-14T09:01:53.125Z,89.18
2023-05-14T09:04:22.468Z,89.40
2023-05-14T09:06:51.485Z,89.22
2023-05-14T09:09:24.081Z,88.70
2023-05-14T09:11:52.689Z,88.07
2023-05-14T09:14:21.117Z,88.11
2023-05-14T09:16:50.287Z,87.80
2023-05-14T09:19:21.203Z,89.01
2023-05-14T09:21:50.264Z,87.72
2023-05-14T09:24:23.353Z,88.20
2023-05-14T09:26:51.931Z,88.90
2023-05-14T09:29:19.465Z,88.76
2023-05-14T09:31:47.016Z,89.36
2023-05-14T09:34:24.162Z,88.99
2023-05-14T09:36:54.504Z,89.15
2023-05-14T09:39:23.955Z,88.53
2023-05-14T09:41:52.072Z,88.93
2023-05-14T09:44:19.823Z,88.99
2023-05-14T09:46:47.644Z,89.02
2023-05-14T09:49:15.365Z,89.02
2023-05-14T09:51:42.751Z,88.67
2023-05-14T09:54:10.429Z,88.97
2023-05-14T09:56:39.731Z,88.72
2023-05-14T09:59:07.041Z,89.54
2023-05-14T10:01:35.267Z,89.19
2023-05-14T10:04:04.781Z,89.74
2023-05-14T10:06:36.503Z,89.56
2023-05-14T10:09:05.943Z,89.43
2023-05-14T10:11:36.971Z,90.31
2023-05-14T10:14:08.723Z,89.71
2023-05-14T10:16:43.089Z,89.43
2023-05-14T10:19:12.048Z,89.80
2023-05-14T10:21:41.761Z,89.95
2023-05-14T10:24:10.829Z,89.51
2023-05-14T10:26:40.920Z,90.02
2023-05-14T10:29:10.430Z,89.75
2023-05-14T10:31:49.342Z,89.89
2023-05-14T10:34:33.749Z,89.72
2023-05-14T10:37:02.078Z,89.62
2023-05-14T10:39:46.906Z,90.01
2023-05-14T10:42:17.150Z,90.45
2023-05-14T10:44:55.076Z,89.46
2023-05-14T10:47:22.767Z,89.30
2023-05-14T10:49:50.352Z,89.50
2023-05-14T10:52:19.973Z,89.59
2023-05-14T10:54:50.874Z,89.97
2023-05-14T10:57:19.131Z,89.85
2023-05-14T10:59:47.744Z,90.39
2023-05-14T11:02:24.315Z,90.11
2023-05-14T11:05:00.014Z,90.97
2023-05-14T11:07:29.578Z,90.08
2023-05-14T11:10:04.386Z,90.58
2023-05-14T11:12:32.328Z,90.39
2023-05-14T11:15:02.300Z,89.69
2023-05-14T11:17:31.757Z,89.79
2023-05-14T11:20:00.202Z,90.42
2023-05-14T11:22:27.788Z,90.26
2023-05-14T11:24:55.293Z,90.25
2023-05-14T11:27:24.321Z,89.99
2023-05-14T11:29:51.598Z,90.48
2023-05-14T11:32:20.545Z,90.58
2023-05-14T11:34:49.399Z,90.46
2023-05-14T11:37:17.252Z,90.94
2023-05-14T11:39:48.677Z,90.64
2023-05-14T11:42:17.598Z,90.38
2023-05-14T11:44:46.102Z,90.64
2023-05-14T11:47:13.600Z,90.45
2023-05-14T11:49:41.175Z,90.11
2023-05-14T11:52:11.776Z,90.78
2023-05-14T11:54:39.060Z,89.77
2023-05-14T11:57:10.477Z,89.93
2023-05-14T11:59:38.312Z,90.06
2023-05-14T12:02:08.468Z,90.10
2023-05-14T12:04:35.909Z,90.17
2023-05-14T12:07:12.045Z,90.22
2023-05-14T12:09:42.606Z,90.59
2023-05-14T12:12:12.582Z,89.94
2023-05-14T12:14:42.784Z,89.98
2023-05-14T12:17:15.269Z,89.75
2023-05-14T12:19:44.074Z,89.50
2023-05-14T12:22:15.980Z,89.77
2023-05-14T12:24:44.111Z,89.46
2023-05-14T12:27:12.001Z,89.75
2023-05-14T12:29:39.642Z,90.01
2023-05-14T12:32:10.494Z,89.07
2023-05-14T12:34:38.730Z,89.26
2023-05-14T12:37:06.698Z,88.77
2023-05-14T12:39:35.871Z,89.88
2023-05-14T12:42:03.116Z,90.12
2023-05-14T12:44:30.552Z,89.21
2023-05-14T12:46:58.125Z,89.10
2023-05-14T12:49:25.484Z,90.22
2023-05-14T12:52:00.699Z,89.66
2023-05-14T12:54:43.579Z,90.50
2023-05-14T12:57:10.801Z,90.16
2023-05-14T12:59:37.983Z,89.93
2023-05-14T13:02:05.487Z,90.55
2023-05-14T13:04:32.652Z,90.59
2023-05-14T13:07:00.331Z,91.00
2023-05-14T13:09:28.106Z,90.36
2023-05-14T13:11:56.799Z,90.17
2023-05-14T13:14:24.010Z,89.66
2023-05-14T13:16:51.319Z,89.90
2023-05-14T13:19:18.885Z,89.37
2023-05-14T13:21:46.060Z,89.53
2023-05-14T13:24:13.249Z,89.84
2023-05-14T13:26:40.454Z,88.89
2023-05-14T13:29:09.101Z,89.41
2023-05-14T13:31:36.511Z,89.83
2023-05-14T13:34:04.381Z,89.99
2023-05-14T13:36:32.346Z,89.78
2023-05-14T13:38:59.739Z,89.85
2023-05-14T13:41:26.936Z,89.41
2023-05-14T13:43:54.247Z,89.27
2023-05-14T13:46:23.116Z,90.02
2023-05-14T13:48:50.352Z,89.83
2023-05-14T13:51:17.510Z,88.66
2023-05-14T13:53:45.283Z,88.90
2023-05-14T13:56:12.456Z,89.47
2023-05-14T13:58:40.119Z,88.81
2023-05-14T14:01:07.899Z,89.36
2023-05-14T14:03:36.512Z,89.50
2023-05-14T14:06:03.892Z,88.94
2023-05-14T14:08:31.326Z,88.93
2023-05-14T14:10:58.543Z,89.10
2023-05-14T14:13:26.076Z,88.87
2023-05-14T14:15:53.490Z,89.74
2023-05-14T14:18:21.136Z,89.56
2023-05-14T14:20:52.507Z,88.59
2023-05-14T14:23:19.797Z,88.96
2023-05-14T14:25:47.278Z,89.88
2023-05-14T14:28:14.700Z,89.64
2023-05-14T14:30:42.731Z,89.40
2023-05-14T14:33:10.135Z,89.52
2023-05-14T14:35:37.851Z,89.84
2023-05-14T14:38:06.486Z,89.83
2023-05-14T14:40:34.114Z,90.08
2023-05-14T14:43:02.138Z,90.15
2023-05-14T14:45:29.594Z,90.32
2023-05-14T14:48:25.137Z,90.31
2023-05-14T14:50:52.664Z,90.50
2023-05-14T14:53:22.025Z,90.30
2023-05-14T14:55:49.365Z,90.12
2023-05-14T14:58:16.763Z,89.63
2023-05-14T15:00:44.318Z,89.52
2023-05-14T15:03:12.132Z,89.96
2023-05-14T15:05:39.648Z,89.42
2023-05-14T15:08:06.906Z,89.88
2023-05-14T15:10:38.151Z,90.09
2023-05-14T15:13:06.895Z,89.70
2023-05-14T15:15:35.308Z,90.22
2023-05-14T15:18:02.803Z,90.06
2023-05-14T15:20:30.282Z,90.35
2023-05-14T15:22:57.664Z,91.00
2023-05-14T15:25:25.400Z,90.23
2023-05-14T15:27:54.572Z,89.89
2023-05-14T15:30:21.829Z,90.20
2023-05-14T15:32:49.518Z,90.10
2023-05-14T15:35:17.156Z,90.72
2023-05-14T15:37:44.906Z,90.16
2023-05-14T15:40:12.973Z,90.85
2023-05-14T15:42:42.248Z,89.90
2023-05-14T15:45:12.640Z,90.85
2023-05-14T15:47:40.441Z,90.49
2023-05-14T15:50:08.749Z,90.98
2023-05-14T15:52:39.500Z,90.66
2023-05-14T15:55:07.561Z,90.15
2023-05-14T15:57:35.238Z,90.29
2023-05-14T16:00:08.581Z,90.23
2023-05-14T16:02:37.713Z,89.74
2023-05-14T16:05:05.792Z,90.74
2023-05-14T16:07:33.606Z,90.94
2023-05-14T16:10:00.838Z,90.75
2023-05-14T16:12:28.241Z,91.09
2023-05-14T16:14:57.239Z,90.31
2023-05-14T16:17:24.715Z,91.50
2023-05-14T16:19:55.941Z,91.02
2023-05-14T16:22:23.712Z,91.09
2023-05-14T16:24:51.055Z,90.80
2023-05-14T16:27:21.242Z,90.72
2023-05-14T16:29:48.542Z,90.89
2023-05-14T16:32:15.983Z,91.02
2023-05-14T16:34:49.933Z,90.87
2023-05-14T16:37:21.964Z,91.71
2023-05-14T16:39:49.165Z,91.32
2023-05-14T16:42:16.376Z,90.71
2023-05-14T16:44:44.003Z,90.25
2023-05-14T16:47:11.264Z,89.75
2023-05-14T16:49:38.675Z,90.95
2023-05-14T16:52:06.927Z,91.15
2023-05-14T16:54:35.606Z,90.98
2023-05-14T16:57:02.868Z,91.12
2023-05-14T16:59:30.116Z,91.16
2023-05-14T17:01:57.616Z,90.97
2023-05-14T17:04:26.786Z,91.10
2023-05-14T17:06:54.640Z,91.33
2023-05-14T17:09:22.258Z,91.38
2023-05-14T17:11:51.389Z,91.40
2023-05-14T17:14:18.618Z,91.51
2023-05-14T17:16:45.911Z,91.08
2023-05-14T17:19:13.333Z,90.96
2023-05-14T17:21:40.995Z,91.67
2023-05-14T17:24:08.507Z,91.24
2023-05-14T17:26:35.764Z,89.79
2023-05-14T17:29:04.697Z,91.11
2023-05-14T17:31:32.065Z,90.89
2023-05-14T17:33:59.368Z,90.49
2023-05-14T17:36:28.721Z,91.48
2023-05-14T17:38:55.964Z,91.25
2023-05-14T17:41:23.228Z,91.02
2023-05-14T17:43:52.556Z,91.68
2023-05-14T17:46:21.473Z,91.96
2023-05-14T17:48:48.939Z,92.27
2023-05-14T17:51:16.443Z,92.36
2023-05-14T17:53:43.642Z,92.02
2023-05-14T17:56:11.128Z,92.36
2023-05-14T17:58:38.503Z,92.72
2023-05-14T18:01:06.438Z,92.28
2023-05-14T18:03:35.606Z,92.45
2023-05-14T18:06:02.911Z,92.39
2023-05-14T18:08:30.416Z,92.76
2023-05-14T18:11:00.152Z,91.82
2023-05-14T18:13:27.573Z,91.50
2023-05-14T18:15:56.677Z,92.01
2023-05-14T18:18:24.216Z,92.15
2023-05-14T18:20:53.795Z,92.72
2023-05-14T18:23:21.201Z,92.57
2023-05-14T18:25:48.596Z,92.12
2023-05-14T18:28:15.948Z,92.50
2023-05-14T18:30:43.865Z,92.52
2023-05-14T18:33:11.816Z,91.95
2023-05-14T18:35:39.738Z,92.67
2023-05-14T18:38:08.360Z,91.74
2023-05-14T18:40:35.594Z,92.60
2023-05-14T18:43:03.253Z,92.76
2023-05-14T18:45:30.552Z,92.59
2023-05-14T18:47:57.912Z,92.61
2023-05-14T18:50:25.657Z,91.91
2023-05-14T18:52:53.106Z,92.43
2023-05-14T18:55:21.975Z,92.94
2023-05-14T18:57:49.794Z,93.09
2023-05-14T19:00:17.654Z,93.03
2023-05-14T19:02:44.863Z,92.93
2023-05-14T19:05:12.293Z,93.23
2023-05-14T19:07:41.002Z,93.31
2023-05-14T19:10:09.707Z,93.21
2023-05-14T19:12:38.490Z,93.27
2023-05-14T19:15:07.460Z,93.20
2023-05-14T19:17:37.564Z,93.56
2023-05-14T19:20:06.481Z,93.57
2023-05-14T19:22:34.033Z,93.86
2023-05-14T19:25:01.532Z,93.53
2023-05-14T19:27:29.094Z,93.66
2023-05-14T19:29:57.853Z,93.30
2023-05-14T19:32:25.058Z,91.84
2023-05-14T19:34:52.368Z,92.12
2023-05-14T19:37:19.652Z,92.70
2023-05-14T19:39:46.812Z,90.84
2023-05-14T19:42:14.008Z,90.63
2023-05-14T19:44:41.435Z,91.68
2023-05-14T19:47:10.550Z,92.63
2023-05-14T19:49:38.012Z,92.87
2023-05-14T19:52:05.891Z,92.55
2023-05-14T19:54:33.337Z,91.52
2023-05-14T19:57:00.838Z,91.83
2023-05-14T19:59:29.964Z,92.10
2023-05-14T20:01:57.596Z,92.82
2023-05-14T20:04:26.355Z,92.82
2023-05-14T20:06:53.777Z,92.75
2023-05-14T20:09:21.373Z,93.03
2023-05-14T20:11:48.817Z,92.39
2023-05-14T20:14:16.530Z,91.70
2023-05-14T20:16:43.855Z,91.76
2023-05-14T20:19:11.230Z,91.65
2023-05-14T20:21:40.133Z,91.91
2023-05-14T20:24:07.681Z,91.30
2023-05-14T20:26:34.976Z,91.59
2023-05-14T20:29:02.405Z,91.29
2023-05-14T20:31:29.821Z,91.93
2023-05-14T20:33:57.075Z,91.76
2023-05-14T20:36:24.604Z,91.34
2023-05-14T20:38:53.415Z,91.96
2023-05-14T20:41:21.168Z,91.86
2023-05-14T20:43:48.345Z,92.13
2023-05-14T20:46:15.636Z,92.20
2023-05-14T20:48:42.925Z,92.07
2023-05-14T20:51:10.197Z,91.84
2023-05-14T20:53:39.254Z,92.17
2023-05-14T20:56:07.957Z,92.62
2023-05-14T20:58:35.708Z,93.18
2023-05-14T21:01:03.966Z,93.33
2023-05-14T21:03:31.529Z,92.29
2023-05-14T21:06:00.689Z,92.80
2023-05-14T21:08:27.985Z,92.18
2023-05-14T21:10:55.169Z,92.10
2023-05-14T21:13:23.928Z,92.17
2023-05-14T21:15:51.354Z,92.28
2023-05-14T21:18:18.674Z,93.14
2023-05-14T21:20:45.887Z,93.20
2023-05-14T21:23:13.100Z,92.29
2023-05-14T21:25:40.353Z,92.07
2023-05-14T21:28:08.177Z,92.07
2023-05-14T21:30:36.726Z,92.15
2023-05-14T21:33:04.088Z,93.08
2023-05-14T21:35:31.484Z,93.74
2023-05-14T21:37:58.802Z,93.83
2023-05-14T21:40:26.216Z,93.49
2023-05-14T21:42:53.437Z,92.66
2023-05-14T21:45:23.404Z,92.07
2023-05-14T21:47:52.487Z,92.09
2023-05-14T21:50:19.798Z,92.99
2023-05-14T21:52:47.481Z,93.66
2023-05-14T21:55:14.848Z,93.94
2023-05-14T21:57:42.209Z,93.35
2023-05-14T22:00:13.235Z,93.23
2023-05-14T22:02:41.023Z,93.81
2023-05-14T22:05:10.101Z,93.87
2023-05-14T22:07:37.341Z,93.15
2023-05-14T22:10:05.109Z,93.13
2023-05-14T22:12:32.340Z,93.47
2023-05-14T22:14:59.660Z,93.75
2023-05-14T22:17:28.079Z,93.98
2023-05-14T22:19:55.474Z,93.83
2023-05-14T22:22:24.093Z,92.62
2023-05-14T22:24:51.240Z,93.29
2023-05-14T22:27:18.550Z,93.62
2023-05-14T22:29:45.772Z,93.84
2023-05-14T22:32:12.922Z,94.05
2023-05-14T22:34:40.208Z,94.14
2023-05-14T22:37:08.196Z,94.04
2023-05-14T22:39:36.911Z,93.60
2023-05-14T22:42:04.514Z,93.61
2023-05-14T22:44:31.714Z,93.63
2023-05-14T22:46:59.373Z,92.78
2023-05-14T22:49:26.613Z,93.71
2023-05-14T22:51:54.551Z,93.89
2023-05-14T22:54:21.843Z,93.85
2023-05-14T22:56:51.809Z,92.56
2023-05-14T22:59:19.799Z,92.87
2023-05-14T23:01:47.879Z,93.25
2023-05-14T23:04:15.019Z,93.52
2023-05-14T23:06:42.303Z,93.87
2023-05-14T23:09:09.587Z,92.37
2023-05-14T23:11:36.770Z,92.26
2023-05-14T23:14:05.418Z,92.72
2023-05-14T23:16:32.732Z,93.76
2023-05-14T23:19:00.065Z,93.53
2023-05-14T23:21:27.493Z,93.51
2023-05-14T23:23:54.728Z,93.47
2023-05-14T23:26:21.928Z,94.26
2023-05-14T23:28:49.115Z,94.07
2023-05-14T23:31:17.844Z,94.05
2023-05-14T23:33:45.314Z,93.06
2023-05-14T23:36:12.613Z,92.93
2023-05-14T23:38:40.869Z,93.60
2023-05-14T23:41:07.987Z,92.79
2023-05-14T23:43:35.228Z,93.20
2023-05-14T23:46:02.639Z,92.18
2023-05-14T23:48:31.678Z,92.06
2023-05-14T23:50:58.904Z,93.30
2023-05-14T23:53:26.302Z,94.01
2023-05-14T23:55:53.511Z,94.29
2023-05-14T23:58:20.884Z,94.28
